Time;durP1;ratioP1;P1;durP2;ratioP2;P2;SDS_P1;SDS_P2;PMS_P1;PMS_P2;Temp;Humidity;BMP_temperature;BMP_pressure;BME280_temperature;BME280_humidity;BME280_pressure;Samples;Min_cycle;Max_cycle;Signal;HPM_P1;HPM_P2
2022/03/18 00:01:21;;;;;;;35.07;4.17;;;8.70;99.90;;;;;;5034300;28;20174;-69
2022/03/18 00:03:46;;;;;;;35.37;4.23;;;8.60;99.90;;;;;;5033952;28;20193;-70
2022/03/18 00:06:16;;;;;;;35.93;4.00;;;8.60;99.90;;;;;;5033725;28;20181;-69
2022/03/18 00:08:42;;;;;;;37.53;4.30;;;8.60;99.90;;;;;;5033519;28;20797;-70
2022/03/18 00:11:08;;;;;;;31.77;3.93;;;8.60;99.90;;;;;;5033841;28;20201;-70
2022/03/18 00:13:34;;;;;;;33.90;4.47;;;8.70;99.90;;;;;;5033960;28;20189;-69
2022/03/18 00:16:00;;;;;;;33.03;3.83;;;8.60;99.90;;;;;;5033857;28;20708;-69
2022/03/18 00:18:26;;;;;;;31.43;4.23;;;8.60;99.90;;;;;;5033750;28;20256;-69
2022/03/18 00:20:51;;;;;;;27.17;3.77;;;8.60;99.90;;;;;;5033781;28;20641;-68
2022/03/18 00:23:17;;;;;;;32.30;4.13;;;8.60;99.90;;;;;;5033699;28;20182;-69
2022/03/18 00:25:43;;;;;;;27.20;3.47;;;8.50;99.90;;;;;;5033904;28;20213;-69
2022/03/18 00:28:08;;;;;;;37.03;3.67;;;8.40;99.90;;;;;;5033827;28;20304;-71
2022/03/18 00:30:34;;;;;;;31.47;3.33;;;8.30;99.90;;;;;;5033694;28;20184;-71
2022/03/18 00:33:00;;;;;;;29.13;3.50;;;8.20;99.90;;;;;;5016017;28;20272;-72
2022/03/18 00:35:25;;;;;;;23.43;3.37;;;8.20;99.90;;;;;;5033745;28;20182;-70
2022/03/18 00:37:51;;;;;;;30.17;3.03;;;8.10;99.90;;;;;;5033393;28;20182;-69
2022/03/18 00:40:16;;;;;;;29.67;3.70;;;8.00;99.90;;;;;;5033508;28;20182;-69
2022/03/18 00:42:42;;;;;;;33.80;4.83;;;8.10;99.90;;;;;;5033515;28;20264;-68
2022/03/18 00:45:08;;;;;;;37.87;4.50;;;8.00;99.90;;;;;;5033530;28;20469;-71
2022/03/18 00:53:30;;;;;;;25.67;3.30;;;8.00;99.90;;;;;;5027617;28;20244;-69
2022/03/18 00:55:56;;;;;;;30.23;3.90;;;8.00;99.90;;;;;;5031097;28;20243;-69
2022/03/18 00:58:21;;;;;;;28.83;4.53;;;8.00;99.90;;;;;;5031810;28;20649;-67
2022/03/18 01:00:47;;;;;;;33.63;4.33;;;8.00;99.90;;;;;;5033238;28;20193;-67
2022/03/18 01:03:15;;;;;;;36.17;3.87;;;7.90;99.90;;;;;;5033324;28;20189;-68
2022/03/18 01:05:41;;;;;;;35.60;4.87;;;7.90;99.90;;;;;;5015421;28;20633;-68
2022/03/18 01:08:07;;;;;;;27.03;4.67;;;7.80;99.90;;;;;;5033011;28;20206;-70
2022/03/18 01:10:33;;;;;;;31.47;3.33;;;7.80;99.90;;;;;;5032957;28;20184;-67
2022/03/18 01:12:58;;;;;;;29.13;4.20;;;7.80;99.90;;;;;;5032711;28;20617;-69
2022/03/18 01:15:24;;;;;;;37.90;3.73;;;7.70;99.90;;;;;;5032731;28;20265;-69
2022/03/18 01:17:50;;;;;;;42.23;4.10;;;7.70;99.90;;;;;;5032694;28;20182;-68
2022/03/18 01:20:15;;;;;;;33.77;3.57;;;7.80;99.90;;;;;;5032500;28;20181;-69
2022/03/18 01:22:41;;;;;;;37.30;4.07;;;7.80;99.90;;;;;;5032799;28;20209;-68
2022/03/18 01:25:07;;;;;;;29.47;3.17;;;7.70;99.90;;;;;;5032824;28;20581;-68
2022/03/18 01:27:33;;;;;;;27.67;3.37;;;7.60;99.90;;;;;;5032588;28;20703;-68
2022/03/18 01:29:59;;;;;;;34.67;4.57;;;7.50;99.90;;;;;;5032731;28;20181;-68
2022/03/18 01:32:24;;;;;;;26.03;3.83;;;7.50;99.90;;;;;;5032993;28;20186;-68
2022/03/18 01:34:50;;;;;;;26.33;4.20;;;7.50;99.90;;;;;;5032531;28;20170;-68
2022/03/18 01:37:16;;;;;;;22.37;3.33;;;7.40;99.90;;;;;;5032409;28;20178;-62
2022/03/18 01:39:42;;;;;;;26.73;3.40;;;7.40;99.90;;;;;;5032463;28;20576;-71
2022/03/18 01:42:07;;;;;;;30.37;3.53;;;7.40;99.90;;;;;;5032278;28;20740;-70
2022/03/18 01:44:44;;;;;;;22.10;3.63;;;7.30;99.90;;;;;;5032316;28;20201;-70
2022/03/18 01:47:11;;;;;;;32.30;4.20;;;7.30;99.90;;;;;;5032089;28;20217;-70
2022/03/18 01:49:37;;;;;;;33.37;3.87;;;7.30;99.90;;;;;;5032583;28;20182;-71
2022/03/18 01:52:06;;;;;;;28.07;4.03;;;7.30;99.90;;;;;;5032385;28;20178;-72
2022/03/18 01:54:44;;;;;;;28.97;4.33;;;7.20;99.90;;;;;;5034646;28;20229;-72
2022/03/18 01:57:11;;;;;;;29.43;3.67;;;7.20;99.90;;;;;;5032143;28;20177;-71
2022/03/18 01:59:37;;;;;;;33.93;4.40;;;7.20;99.90;;;;;;5032169;28;20197;-71
2022/03/18 02:02:04;;;;;;;34.47;4.10;;;7.10;99.90;;;;;;5032035;28;20178;-71
2022/03/18 02:04:30;;;;;;;52.87;5.77;;;7.20;99.90;;;;;;5031257;28;20177;-70
2022/03/18 02:06:56;;;;;;;34.60;4.77;;;7.30;99.90;;;;;;5014014;28;20205;-71
2022/03/18 02:09:22;;;;;;;25.10;4.37;;;7.30;99.90;;;;;;5032029;28;20192;-71
2022/03/18 02:11:48;;;;;;;32.93;4.83;;;7.20;99.90;;;;;;5031825;28;20652;-71
2022/03/18 02:14:14;;;;;;;27.23;4.10;;;7.20;99.90;;;;;;5031772;28;20177;-73
2022/03/18 02:16:40;;;;;;;39.40;4.70;;;7.20;99.90;;;;;;5013923;28;20240;-73
2022/03/18 02:19:09;;;;;;;29.77;5.33;;;7.20;99.90;;;;;;5013896;28;20216;-72
2022/03/18 02:21:38;;;;;;;37.20;5.07;;;7.20;99.90;;;;;;5031646;28;20174;-71
2022/03/18 02:24:04;;;;;;;30.63;4.53;;;7.20;99.90;;;;;;5031490;28;20182;-70
2022/03/18 02:26:30;;;;;;;35.93;4.43;;;7.10;99.90;;;;;;5031505;28;20245;-70
2022/03/18 02:28:58;;;;;;;31.70;3.47;;;7.20;99.90;;;;;;5031668;28;20667;-70
2022/03/18 02:31:29;;;;;;;38.40;4.07;;;7.20;99.90;;;;;;5034319;28;20186;-71
2022/03/18 02:33:55;;;;;;;37.97;4.37;;;7.20;99.90;;;;;;5031352;28;20601;-70
2022/03/18 02:36:21;;;;;;;28.70;4.73;;;7.10;99.90;;;;;;5030942;28;20184;-70
2022/03/18 02:38:46;;;;;;;30.03;3.73;;;7.10;99.90;;;;;;5031295;28;20169;-70
2022/03/18 02:41:12;;;;;;;25.43;3.60;;;7.10;99.90;;;;;;5031453;28;20189;-69
2022/03/18 02:43:38;;;;;;;22.03;3.17;;;7.10;99.90;;;;;;5031367;28;20185;-69
2022/03/18 02:46:05;;;;;;;30.30;3.80;;;7.00;99.90;;;;;;5031334;28;20312;-69
2022/03/18 02:48:30;;;;;;;35.00;3.73;;;7.00;99.90;;;;;;5013450;28;20304;-68
2022/03/18 02:50:56;;;;;;;24.07;3.53;;;6.90;99.90;;;;;;5030979;28;20638;-66
2022/03/18 02:53:22;;;;;;;32.00;3.10;;;6.90;99.90;;;;;;5031047;28;20177;-71
2022/03/18 02:55:48;;;;;;;32.33;3.60;;;6.90;99.90;;;;;;5030965;28;20218;-68
2022/03/18 02:58:14;;;;;;;33.23;3.70;;;6.80;99.90;;;;;;5030665;28;20644;-67
2022/03/18 03:00:40;;;;;;;32.07;3.73;;;6.80;99.90;;;;;;5013260;28;20188;-67
2022/03/18 03:03:05;;;;;;;33.80;3.63;;;6.80;99.90;;;;;;5030813;28;20173;-67
2022/03/18 03:08:16;;;;;;;26.17;3.23;;;6.70;99.90;;;;;;5016396;28;20275;-67
2022/03/18 03:10:43;;;;;;;19.13;3.03;;;6.70;99.90;;;;;;5031056;28;20619;-67
2022/03/18 03:13:10;;;;;;;19.07;3.23;;;6.60;99.90;;;;;;5031136;28;20182;-67
2022/03/18 03:15:38;;;;;;;24.47;4.17;;;6.60;99.90;;;;;;5030802;28;20170;-69
2022/03/18 03:18:04;;;;;;;27.93;3.30;;;6.60;99.90;;;;;;5030745;28;20182;-67
2022/03/18 03:20:30;;;;;;;18.43;3.13;;;6.50;99.90;;;;;;5030661;28;20248;-68
2022/03/18 03:22:56;;;;;;;23.83;3.20;;;6.50;99.90;;;;;;5030764;28;20178;-69
2022/03/18 03:25:22;;;;;;;31.70;4.00;;;6.40;99.90;;;;;;5015875;28;20181;-69
2022/03/18 03:27:53;;;;;;;16.07;2.57;;;6.50;99.90;;;;;;5030649;28;20209;-69
2022/03/18 03:30:20;;;;;;;19.43;2.83;;;6.40;99.90;;;;;;5030573;28;20260;-69
2022/03/18 03:32:46;;;;;;;33.73;3.67;;;6.40;99.90;;;;;;5030452;28;20583;-69
2022/03/18 03:35:12;;;;;;;19.07;2.93;;;6.30;99.90;;;;;;5030724;28;20252;-68
2022/03/18 03:37:38;;;;;;;28.47;4.07;;;6.20;99.90;;;;;;5030733;28;20178;-68
2022/03/18 03:40:05;;;;;;;22.70;3.40;;;6.20;99.90;;;;;;5013111;28;20247;-69
2022/03/18 03:42:30;;;;;;;19.60;3.50;;;6.10;99.90;;;;;;5030535;28;20174;-69
2022/03/18 03:44:56;;;;;;;20.70;3.53;;;6.10;99.90;;;;;;5030525;28;20174;-69
2022/03/18 03:47:22;;;;;;;23.83;4.03;;;6.10;99.90;;;;;;5030215;28;20213;-69
2022/03/18 03:49:47;;;;;;;32.07;3.97;;;6.20;99.90;;;;;;5012691;28;20201;-69
2022/03/18 03:52:13;;;;;;;17.50;4.20;;;6.00;99.90;;;;;;5012962;28;20186;-69
2022/03/18 03:54:40;;;;;;;16.87;3.67;;;6.00;99.90;;;;;;5030626;28;20226;-68
2022/03/18 03:57:06;;;;;;;25.23;4.20;;;6.00;99.90;;;;;;5030380;28;20190;-68
2022/03/18 03:59:32;;;;;;;20.27;3.50;;;5.90;99.90;;;;;;5030332;28;20285;-68
2022/03/18 04:01:58;;;;;;;18.07;3.60;;;5.90;99.90;;;;;;5030389;28;20189;-68
2022/03/18 04:04:27;;;;;;;21.03;3.63;;;5.80;99.90;;;;;;5030362;28;20640;-69
2022/03/18 04:06:53;;;;;;;21.67;4.53;;;5.80;99.90;;;;;;5030280;28;20593;-69
2022/03/18 04:09:19;;;;;;;24.07;3.93;;;5.90;99.90;;;;;;5012817;28;20261;-70
2022/03/18 04:11:45;;;;;;;21.73;3.60;;;5.90;99.90;;;;;;5030363;28;20202;-69
2022/03/18 04:14:10;;;;;;;19.03;3.90;;;5.90;99.90;;;;;;5029949;28;20651;-68
2022/03/18 04:16:36;;;;;;;28.53;4.63;;;5.90;99.90;;;;;;5030289;28;20339;-68
2022/03/18 04:19:05;;;;;;;21.43;4.43;;;5.90;99.90;;;;;;5030076;28;20202;-68
2022/03/18 04:21:31;;;;;;;25.40;3.07;;;5.90;99.90;;;;;;5030131;28;20186;-68
2022/03/18 04:23:57;;;;;;;22.33;3.40;;;5.90;99.90;;;;;;5030232;28;20181;-69
2022/03/18 04:26:22;;;;;;;17.17;3.30;;;5.80;99.90;;;;;;5030444;28;20182;-69
2022/03/18 04:28:48;;;;;;;18.47;3.37;;;5.80;99.90;;;;;;5033707;28;20182;-69
2022/03/18 04:31:14;;;;;;;22.20;3.27;;;5.70;99.90;;;;;;5033493;28;20178;-69
2022/03/18 04:33:39;;;;;;;16.47;3.10;;;5.70;99.90;;;;;;5033781;28;20751;-69
2022/03/18 04:36:05;;;;;;;18.93;3.23;;;5.70;99.90;;;;;;5033560;28;20174;-70
2022/03/18 04:38:30;;;;;;;19.97;4.17;;;5.60;99.90;;;;;;5033480;28;20182;-69
2022/03/18 04:40:56;;;;;;;30.20;4.00;;;5.60;99.90;;;;;;5033708;28;20185;-70
2022/03/18 04:43:22;;;;;;;25.43;3.87;;;5.50;99.90;;;;;;5033518;28;20182;-62
2022/03/18 04:45:47;;;;;;;27.03;5.13;;;5.50;99.90;;;;;;5033204;28;20617;-69
2022/03/18 04:48:13;;;;;;;22.33;4.63;;;5.40;99.90;;;;;;5033747;28;20232;-69
2022/03/18 04:50:39;;;;;;;16.47;3.60;;;5.30;99.90;;;;;;5033505;28;20536;-70
2022/03/18 04:53:04;;;;;;;26.93;5.00;;;5.30;99.90;;;;;;5033763;28;20193;-70
2022/03/18 04:55:30;;;;;;;31.27;4.77;;;5.40;99.90;;;;;;5033021;28;20217;-70
2022/03/18 04:57:56;;;;;;;21.07;4.33;;;5.40;99.90;;;;;;5033084;28;20525;-70
2022/03/18 05:00:24;;;;;;;24.60;4.80;;;5.30;99.90;;;;;;5033248;28;20173;-69
2022/03/18 05:02:51;;;;;;;22.53;4.10;;;5.40;99.90;;;;;;5033248;28;20644;-69
2022/03/18 05:05:19;;;;;;;16.37;4.37;;;5.30;99.90;;;;;;5033142;28;20182;-69
2022/03/18 05:07:49;;;;;;;26.67;4.27;;;5.40;99.90;;;;;;5033037;28;20215;-76
2022/03/18 05:10:14;;;;;;;16.93;3.97;;;5.40;99.90;;;;;;5033334;28;20209;-77
2022/03/18 05:12:40;;;;;;;20.30;3.77;;;5.40;99.90;;;;;;5033095;28;20181;-77
2022/03/18 05:15:08;;;;;;;22.10;4.30;;;5.40;99.90;;;;;;5032958;28;20182;-77
2022/03/18 05:17:35;;;;;;;18.83;3.67;;;5.60;99.90;;;;;;5032990;28;20224;-77
2022/03/18 05:20:01;;;;;;;12.43;3.70;;;5.60;99.90;;;;;;5033196;28;20174;-76
2022/03/18 05:22:27;;;;;;;19.67;3.77;;;5.70;99.90;;;;;;5033276;28;20181;-77
2022/03/18 05:24:52;;;;;;;20.23;3.63;;;5.70;99.90;;;;;;5032677;28;20185;-77
2022/03/18 05:27:18;;;;;;;20.90;3.97;;;5.80;99.90;;;;;;5032780;28;20679;-76
2022/03/18 05:29:44;;;;;;;18.67;3.43;;;5.90;99.90;;;;;;5015130;28;20624;-76
2022/03/18 05:32:11;;;;;;;13.27;3.33;;;5.90;99.90;;;;;;5032819;28;20170;-76
2022/03/18 05:34:37;;;;;;;10.57;3.60;;;5.90;99.90;;;;;;5032691;28;20185;-75
2022/03/18 05:37:05;;;;;;;15.70;4.30;;;5.90;99.90;;;;;;5032438;28;20174;-74
2022/03/18 05:39:32;;;;;;;22.73;4.57;;;5.80;99.90;;;;;;5032382;28;20736;-75
2022/03/18 05:41:57;;;;;;;18.97;4.10;;;5.80;99.90;;;;;;5032563;28;20170;-73
2022/03/18 05:44:23;;;;;;;18.33;4.97;;;5.70;99.90;;;;;;5032526;28;20285;-75
2022/03/18 05:46:49;;;;;;;18.43;4.47;;;5.70;99.90;;;;;;5032245;28;20214;-75
2022/03/18 05:49:17;;;;;;;19.43;5.03;;;5.70;99.90;;;;;;5032528;28;20299;-74
2022/03/18 05:51:43;;;;;;;21.67;4.73;;;5.80;99.90;;;;;;5032315;28;20617;-74
2022/03/18 05:54:09;;;;;;;20.17;4.80;;;5.90;99.90;;;;;;5032127;28;20763;-75
2022/03/18 05:56:55;;;;;;;23.43;5.10;;;5.90;99.90;;;;;;5032146;28;20182;-73
2022/03/18 05:59:24;;;;;;;29.20;5.33;;;6.00;99.90;;;;;;5031392;28;20170;-74
2022/03/18 06:01:52;;;;;;;25.07;5.30;;;6.00;99.90;;;;;;5032595;28;20182;-73
2022/03/18 06:04:18;;;;;;;22.77;5.23;;;6.10;99.90;;;;;;5031974;28;20243;-73
2022/03/18 06:06:44;;;;;;;32.27;5.67;;;6.10;99.90;;;;;;5032041;28;20661;-73
2022/03/18 06:11:55;;;;;;;68.67;8.23;;;6.20;99.90;;;;;;5032329;28;20658;-73
2022/03/18 06:14:26;;;;;;;57.87;9.20;;;6.20;99.90;;;;;;5031714;28;20249;-73
2022/03/18 06:16:54;;;;;;;66.80;8.30;;;6.30;99.90;;;;;;5031872;28;20543;-73
2022/03/18 06:19:22;;;;;;;84.63;9.13;;;6.40;99.90;;;;;;5031734;28;20174;-74
2022/03/18 06:21:47;;;;;;;62.63;8.77;;;7.10;99.90;;;;;;5031603;28;20193;-71
2022/03/18 06:24:14;;;;;;;64.43;8.40;;;6.40;99.90;;;;;;5031623;28;20170;-72
2022/03/18 06:26:40;;;;;;;76.47;9.50;;;6.50;99.90;;;;;;5031575;28;20287;-72
2022/03/18 06:29:06;;;;;;;89.10;10.23;;;6.50;99.90;;;;;;5031451;28;20680;-72
2022/03/18 06:31:33;;;;;;;72.43;9.47;;;6.60;99.90;;;;;;5031352;28;20240;-70
2022/03/18 06:33:59;;;;;;;130.33;9.97;;;6.60;99.90;;;;;;5031555;28;20189;-71
2022/03/18 06:36:25;;;;;;;89.53;9.13;;;6.60;99.90;;;;;;5031365;28;20184;-71
2022/03/18 06:38:50;;;;;;;138.80;10.23;;;6.60;99.90;;;;;;5031199;28;20181;-71
2022/03/18 06:41:16;;;;;;;79.43;9.67;;;6.60;99.90;;;;;;5031298;28;20253;-71
2022/03/18 06:43:42;;;;;;;80.03;9.43;;;6.70;99.90;;;;;;5031216;28;20209;-71
2022/03/18 06:46:08;;;;;;;65.70;10.23;;;6.70;99.90;;;;;;5030945;28;20174;-71
2022/03/18 06:48:34;;;;;;;99.00;10.20;;;6.80;99.90;;;;;;5031070;28;20253;-71
2022/03/18 06:51:00;;;;;;;164.93;12.20;;;6.80;99.90;;;;;;5030693;28;20180;-71
2022/03/18 06:53:26;;;;;;;66.73;10.57;;;6.90;99.90;;;;;;5031234;28;20212;-69
2022/03/18 06:55:52;;;;;;;80.57;10.80;;;6.90;99.90;;;;;;5031051;28;20260;-71
2022/03/18 06:58:18;;;;;;;79.93;10.83;;;6.90;99.90;;;;;;5031243;28;20273;-71
2022/03/18 07:00:43;;;;;;;74.57;9.53;;;7.00;99.90;;;;;;5031131;28;20194;-72
2022/03/18 07:03:09;;;;;;;72.63;10.03;;;7.00;99.90;;;;;;5031141;28;20174;-71
2022/03/18 07:05:35;;;;;;;66.47;10.03;;;7.00;99.90;;;;;;5031169;28;20636;-71
2022/03/18 07:08:00;;;;;;;86.87;10.33;;;7.10;99.90;;;;;;5030852;28;20296;-69
2022/03/18 07:10:26;;;;;;;76.20;7.90;;;7.10;99.90;;;;;;5030932;28;20166;-72
2022/03/18 07:12:53;;;;;;;58.30;6.20;;;7.20;99.90;;;;;;5030700;28;20258;-72
2022/03/18 07:15:18;;;;;;;125.70;6.80;;;7.10;99.90;;;;;;5030734;28;20188;-71
2022/03/18 07:17:59;;;;;;;55.63;7.60;;;7.00;99.90;;;;;;5030624;28;20177;-72
2022/03/18 07:20:37;;;;;;;113.50;6.97;;;7.00;99.90;;;;;;5030927;28;20216;-71
2022/03/18 07:23:07;;;;;;;40.17;5.90;;;7.00;99.90;;;;;;5030681;28;20645;-71
2022/03/18 07:25:34;;;;;;;31.17;5.57;;;7.10;99.90;;;;;;5030791;28;20201;-73
2022/03/18 07:28:00;;;;;;;62.93;6.33;;;7.20;99.90;;;;;;5030241;28;20672;-71
2022/03/18 07:30:27;;;;;;;52.37;6.13;;;7.20;99.90;;;;;;5030468;28;20184;-70
2022/03/18 07:32:52;;;;;;;85.43;7.60;;;7.10;99.90;;;;;;5032385;28;20186;-71
2022/03/18 07:35:18;;;;;;;60.07;7.20;;;7.20;99.90;;;;;;5030006;28;20234;-71
2022/03/18 07:37:45;;;;;;;26.50;6.33;;;7.30;99.90;;;;;;5030098;28;20200;-70
2022/03/18 07:40:11;;;;;;;37.23;6.67;;;7.30;99.90;;;;;;5030521;28;20188;-73
2022/03/18 07:42:49;;;;;;;27.50;6.53;;;7.20;99.90;;;;;;5030283;28;20706;-72
2022/03/18 07:45:20;;;;;;;18.43;6.13;;;7.30;99.90;;;;;;5030313;28;20170;-71
2022/03/18 07:47:49;;;;;;;24.47;7.23;;;7.40;99.90;;;;;;5030070;28;20739;-74
2022/03/18 07:50:20;;;;;;;19.50;6.20;;;7.50;99.90;;;;;;5030339;28;20177;-74
2022/03/18 07:52:49;;;;;;;44.97;7.10;;;7.20;99.90;;;;;;5030105;28;20204;-74
2022/03/18 07:55:16;;;;;;;32.73;6.20;;;7.20;99.90;;;;;;5030229;28;20257;-74
2022/03/18 07:57:42;;;;;;;28.60;6.80;;;7.00;99.90;;;;;;5029819;28;20174;-74
2022/03/18 08:00:09;;;;;;;20.57;6.33;;;7.10;99.90;;;;;;5030566;28;20174;-70
2022/03/18 08:02:34;;;;;;;27.27;5.83;;;7.20;99.90;;;;;;5031985;28;20662;-72
2022/03/18 08:05:01;;;;;;;32.20;6.80;;;7.20;99.90;;;;;;5033407;28;20257;-70
2022/03/18 08:07:28;;;;;;;32.50;6.37;;;7.30;99.90;;;;;;5033937;28;20243;-70
2022/03/18 08:09:54;;;;;;;19.50;6.47;;;7.40;99.90;;;;;;5033137;28;20263;-70
2022/03/18 08:12:19;;;;;;;33.73;6.83;;;7.60;99.90;;;;;;5037735;28;20637;-70
2022/03/18 08:14:45;;;;;;;21.50;7.00;;;7.60;99.90;;;;;;5043002;28;20192;-69
2022/03/18 08:17:11;;;;;;;39.37;7.63;;;7.50;99.90;;;;;;5034102;28;20272;-69
2022/03/18 08:19:36;;;;;;;16.73;6.43;;;7.50;99.90;;;;;;5034053;28;20266;-70
2022/03/18 08:22:04;;;;;;;44.87;7.57;;;7.60;99.90;;;;;;5016259;28;20699;-69
2022/03/18 08:24:31;;;;;;;21.30;6.83;;;7.80;99.90;;;;;;5034005;28;20185;-70
2022/03/18 08:26:56;;;;;;;20.83;6.60;;;8.00;99.90;;;;;;5033708;28;20206;-69
2022/03/18 08:29:22;;;;;;;12.33;6.50;;;8.10;99.90;;;;;;5033726;28;20181;-70
2022/03/18 08:31:47;;;;;;;14.47;6.50;;;8.10;99.90;;;;;;5041432;28;20572;-69
2022/03/18 08:34:14;;;;;;;12.27;6.30;;;8.50;99.90;;;;;;5033715;28;20209;-71
2022/03/18 08:36:40;;;;;;;13.47;6.00;;;8.70;99.90;;;;;;5033679;28;20697;-71
2022/03/18 08:39:06;;;;;;;16.97;5.90;;;9.40;99.90;;;;;;5033611;28;20265;-69
2022/03/18 08:41:32;;;;;;;15.63;5.90;;;8.70;99.90;;;;;;5033551;28;20231;-67
2022/03/18 08:43:57;;;;;;;11.27;6.13;;;8.80;99.90;;;;;;5033813;28;20261;-69
2022/03/18 08:46:23;;;;;;;8.60;5.23;;;8.60;99.90;;;;;;5033498;28;20629;-68
2022/03/18 08:48:49;;;;;;;16.97;6.47;;;8.40;99.90;;;;;;5033691;28;20220;-68
2022/03/18 08:51:15;;;;;;;16.33;7.00;;;8.30;99.90;;;;;;5033361;28;20216;-69
2022/03/18 08:53:41;;;;;;;12.93;6.37;;;8.70;99.90;;;;;;5032266;28;20211;-68
2022/03/18 08:56:07;;;;;;;13.07;6.53;;;8.70;99.90;;;;;;5033313;28;20633;-68
2022/03/18 08:58:33;;;;;;;10.57;5.50;;;8.70;99.90;;;;;;5015565;28;20188;-66
2022/03/18 09:00:59;;;;;;;13.40;5.90;;;9.30;99.90;;;;;;5033129;28;20185;-66
2022/03/18 09:03:25;;;;;;;11.37;5.57;;;9.80;99.90;;;;;;5033277;28;20578;-67
2022/03/18 09:05:51;;;;;;;10.03;5.63;;;11.40;99.90;;;;;;5033147;28;20655;-65
2022/03/18 09:08:16;;;;;;;16.20;5.90;;;13.60;99.90;;;;;;5032685;28;20220;-66
2022/03/18 09:10:42;;;;;;;11.90;5.97;;;14.40;99.90;;;;;;5033049;28;20174;-66
2022/03/18 09:13:08;;;;;;;11.27;6.32;;;14.80;99.90;;;;;;5045172;28;20200;-67
2022/03/18 09:15:34;;;;;;;14.90;5.55;;;16.30;99.90;;;;;;5033197;28;20665;-72
2022/03/18 09:18:00;;;;;;;14.27;5.78;;;17.90;99.90;;;;;;5015264;28;20178;-74
2022/03/18 09:20:26;;;;;;;9.68;5.10;;;19.50;99.90;;;;;;5032915;28;20256;-63
2022/03/18 09:22:52;;;;;;;14.40;5.30;;;20.40;99.90;;;;;;5032657;28;20182;-72
2022/03/18 09:25:19;;;;;;;12.73;5.55;;;20.30;99.90;;;;;;5014372;28;20185;-72
2022/03/18 09:27:44;;;;;;;13.52;5.13;;;21.00;99.90;;;;;;5032880;28;20222;-72
2022/03/18 09:30:11;;;;;;;12.18;5.60;;;21.30;99.90;;;;;;5032673;28;20616;-66
2022/03/18 09:32:40;;;;;;;13.05;5.63;;;21.10;99.90;;;;;;5032339;28;20178;-65
2022/03/18 09:35:07;;;;;;;11.35;5.30;;;20.90;99.90;;;;;;5014629;28;20213;-64
2022/03/18 09:37:33;;;;;;;12.30;5.57;;;21.10;99.90;;;;;;5032277;28;20204;-69
2022/03/18 09:40:01;;;;;;;14.38;4.97;;;21.80;99.90;;;;;;5031527;28;20363;-71
2022/03/18 09:42:27;;;;;;;14.55;5.65;;;22.40;99.90;;;;;;5032358;28;20177;-66
2022/03/18 09:44:53;;;;;;;9.52;4.97;;;23.00;99.90;;;;;;5032030;28;20166;-69
2022/03/18 09:47:21;;;;;;;11.98;4.63;;;23.10;99.90;;;;;;5032094;28;20698;-63
2022/03/18 09:49:47;;;;;;;9.80;5.38;;;23.00;99.90;;;;;;5033825;28;20261;-64
2022/03/18 09:52:15;;;;;;;10.15;5.35;;;23.30;99.90;;;;;;5031438;28;20177;-74
2022/03/18 09:54:41;;;;;;;12.30;5.55;;;23.50;99.90;;;;;;5031842;28;20218;-74
2022/03/18 09:57:07;;;;;;;11.65;5.38;;;23.90;99.90;;;;;;5031189;28;20185;-75
2022/03/18 09:59:32;;;;;;;17.67;5.13;;;23.60;99.90;;;;;;5031573;28;20177;-75
2022/03/18 10:02:21;;;;;;;10.63;5.20;;;23.80;99.90;;;;;;5032138;28;20544;-75
2022/03/18 10:05:06;;;;;;;9.80;5.57;;;23.70;99.90;;;;;;5032113;28;20186;-75
2022/03/18 10:10:54;;;;;;;17.23;5.75;;;24.40;99.90;;;;;;5031532;28;20176;-75
2022/03/18 10:13:20;;;;;;;13.70;5.78;;;24.20;99.90;;;;;;5031834;28;20174;-65
2022/03/18 10:15:46;;;;;;;14.13;5.22;;;24.50;99.90;;;;;;5031861;28;20644;-64
2022/03/18 10:18:14;;;;;;;11.98;5.07;;;24.70;99.90;;;;;;5031973;28;20170;-64
2022/03/18 10:20:42;;;;;;;18.13;5.22;;;24.10;99.90;;;;;;5013842;28;20188;-63
2022/03/18 10:23:16;;;;;;;17.73;4.63;;;21.00;99.90;;;;;;5030057;28;20174;-62
2022/03/18 10:25:53;;;;;;;16.48;5.18;;;20.90;99.90;;;;;;5030825;28;20173;-63
2022/03/18 10:28:47;;;;;;;13.38;4.45;;;23.00;99.90;;;;;;5031618;28;20233;-63
2022/03/18 10:31:20;;;;;;;14.90;4.18;;;22.20;99.90;;;;;;5029970;28;20173;-63
2022/03/18 10:37:04;;;;;;;12.13;3.95;;;20.50;99.90;;;;;;5029901;28;20235;-63
2022/03/18 10:39:28;;;;;;;11.07;3.33;;;20.20;99.90;;;;;;5031029;28;20247;-63
2022/03/18 10:41:55;;;;;;;9.65;3.28;;;21.80;99.90;;;;;;5031095;28;20302;-63
2022/03/18 10:44:21;;;;;;;10.27;2.97;;;21.20;99.90;;;;;;5021617;28;20224;-63
2022/03/18 10:46:53;;;;;;;10.80;3.03;;;20.30;99.90;;;;;;5031055;28;20632;-62
2022/03/18 10:49:21;;;;;;;14.75;3.63;;;20.30;99.90;;;;;;5031006;28;20248;-63
2022/03/18 10:51:47;;;;;;;14.10;3.25;;;21.00;99.90;;;;;;5030807;28;20173;-63
2022/03/18 10:54:12;;;;;;;11.20;3.20;;;19.30;99.90;;;;;;5030761;28;20221;-62
2022/03/18 10:56:59;;;;;;;11.63;3.30;;;20.20;99.90;;;;;;5030906;28;20707;-62
2022/03/18 10:59:27;;;;;;;14.02;3.08;;;21.00;99.90;;;;;;5030807;28;20208;-62
2022/03/18 11:01:56;;;;;;;17.10;3.58;;;22.00;99.90;;;;;;5030901;28;20174;-64
2022/03/18 11:04:23;;;;;;;11.88;2.97;;;21.10;99.90;;;;;;5046429;28;20551;-64
2022/03/18 11:12:32;;;;;;;13.50;3.00;;;21.90;99.90;;;;;;5031189;28;20177;-64
2022/03/18 11:14:59;;;;;;;12.82;3.10;;;21.00;99.90;;;;;;5030888;28;20174;-61
2022/03/18 11:17:25;;;;;;;9.15;2.30;;;20.50;99.90;;;;;;5030672;28;20240;-61
2022/03/18 11:19:59;;;;;;;9.43;3.05;;;20.60;99.90;;;;;;5030673;28;20166;-62
2022/03/18 11:22:26;;;;;;;13.07;2.67;;;21.60;99.90;;;;;;5031028;28;20231;-62
2022/03/18 11:24:53;;;;;;;11.80;3.00;;;21.20;99.90;;;;;;5030720;28;20212;-63
2022/03/18 11:27:19;;;;;;;12.95;3.03;;;21.70;99.90;;;;;;5030636;28;20316;-62
2022/03/18 11:29:45;;;;;;;11.23;3.20;;;20.80;99.90;;;;;;5030860;28;20225;-62
2022/03/18 11:32:15;;;;;;;15.15;3.22;;;20.50;99.90;;;;;;5029267;28;20205;-62
2022/03/18 11:34:53;;;;;;;12.27;2.83;;;21.80;99.90;;;;;;5030682;28;20194;-62
2022/03/18 11:37:20;;;;;;;14.45;3.55;;;22.40;99.90;;;;;;5030829;28;20215;-62
2022/03/18 11:39:46;;;;;;;11.48;3.35;;;20.20;99.90;;;;;;5030694;28;20174;-62
2022/03/18 11:42:17;;;;;;;15.75;3.65;;;21.20;99.90;;;;;;5030569;28;20706;-62
2022/03/18 11:45:01;;;;;;;10.65;3.05;;;20.00;99.90;;;;;;5030511;28;20174;-62
2022/03/18 11:47:30;;;;;;;15.80;3.10;;;18.90;99.90;;;;;;5030427;28;20300;-62
2022/03/18 11:49:56;;;;;;;9.68;3.15;;;19.00;99.90;;;;;;5030506;28;20228;-62
2022/03/18 11:52:22;;;;;;;11.05;3.05;;;18.70;99.90;;;;;;5030361;28;20178;-63
2022/03/18 11:55:01;;;;;;;13.73;3.40;;;19.60;99.90;;;;;;5030361;28;20587;-63
2022/03/18 11:57:34;;;;;;;9.00;2.85;;;21.50;99.90;;;;;;5030658;28;20257;-63
2022/03/18 12:00:05;;;;;;;11.45;2.92;;;21.80;99.90;;;;;;5030537;28;20248;-63
2022/03/18 12:02:38;;;;;;;13.02;2.60;;;21.20;99.90;;;;;;5030323;28;20178;-63
2022/03/18 12:05:07;;;;;;;9.93;3.25;;;22.90;99.90;;;;;;5029032;28;20170;-63
2022/03/18 12:07:49;;;;;;;14.43;3.15;;;22.20;99.90;;;;;;5029077;28;20218;-63
2022/03/18 12:10:30;;;;;;;9.15;3.08;;;22.50;99.90;;;;;;5030277;28;20170;-63
2022/03/18 12:12:56;;;;;;;14.10;3.67;;;22.70;99.90;;;;;;5030373;28;20241;-64
2022/03/18 12:15:22;;;;;;;11.82;2.90;;;21.90;99.90;;;;;;5030390;28;20709;-63
2022/03/18 12:17:49;;;;;;;9.35;3.10;;;20.70;99.90;;;;;;5030345;28;20174;-63
2022/03/18 12:20:32;;;;;;;12.20;3.13;;;21.00;99.90;;;;;;5029844;28;20185;-63
2022/03/18 12:23:05;;;;;;;18.73;2.95;;;21.40;99.90;;;;;;5029107;28;20212;-63
2022/03/18 12:25:32;;;;;;;10.73;2.78;;;23.40;99.90;;;;;;5030472;28;20182;-63
2022/03/18 12:27:58;;;;;;;10.23;2.72;;;22.10;99.90;;;;;;5029784;28;20209;-64
2022/03/18 12:30:26;;;;;;;9.32;3.08;;;21.80;99.90;;;;;;5029767;28;20227;-64
2022/03/18 12:32:55;;;;;;;11.73;3.25;;;20.90;99.90;;;;;;5029733;28;20281;-63
2022/03/18 12:35:45;;;;;;;9.52;2.60;;;19.70;99.90;;;;;;5030200;28;20169;-63
2022/03/18 12:38:15;;;;;;;10.52;3.10;;;20.70;99.90;;;;;;5030017;28;20167;-63
2022/03/18 12:40:45;;;;;;;11.60;3.15;;;20.90;99.90;;;;;;5030025;28;20258;-64
2022/03/18 12:43:15;;;;;;;8.88;2.80;;;22.50;99.90;;;;;;5012103;28;20185;-63
2022/03/18 12:45:43;;;;;;;7.68;2.67;;;21.80;99.90;;;;;;5029925;28;20540;-63
2022/03/18 12:48:13;;;;;;;7.97;2.35;;;22.70;99.90;;;;;;5032133;28;20209;-63
2022/03/18 12:50:47;;;;;;;8.70;2.60;;;22.00;99.90;;;;;;5034512;28;20196;-63
2022/03/18 12:53:22;;;;;;;10.10;2.83;;;21.50;99.90;;;;;;5033432;28;20173;-63
2022/03/18 12:55:50;;;;;;;8.80;2.80;;;21.40;99.90;;;;;;5033077;28;20296;-63
2022/03/18 12:58:17;;;;;;;13.13;3.13;;;19.10;99.90;;;;;;5033173;28;20261;-63
2022/03/18 13:00:55;;;;;;;10.95;2.88;;;20.00;99.90;;;;;;5033370;28;20197;-63
2022/03/18 13:03:25;;;;;;;9.18;2.60;;;19.90;99.90;;;;;;5031914;28;20177;-63
2022/03/18 13:05:52;;;;;;;9.63;3.05;;;20.60;99.90;;;;;;5033136;28;20158;-63
2022/03/18 13:08:19;;;;;;;13.88;3.03;;;21.70;99.90;;;;;;5015348;28;20224;-63